createdAt,value
2022-11-16T00:00:16.131Z,99990.50
2022-11-16T00:02:42.921Z,99992.63
2022-11-16T00:05:10.033Z,99988.00
2022-11-16T00:07:36.941Z,99990.31
2022-11-16T00:10:04.000Z,99991.97
2022-11-16T00:12:30.834Z,99999.25
2022-11-16T00:14:57.599Z,99989.66
2022-11-16T00:17:24.430Z,99991.31
2022-11-16T00:19:51.259Z,99994.63
2022-11-16T00:22:18.099Z,99985.19
2022-11-16T00:24:44.994Z,99979.41
2022-11-16T00:27:11.812Z,99973.41
2022-11-16T00:29:38.566Z,99978.38
2022-11-16T00:32:05.421Z,99979.75
2022-11-16T00:34:32.435Z,99972.44
2022-11-16T00:36:59.278Z,99960.69
2022-11-16T00:39:25.992Z,99971.44
2022-11-16T00:41:52.797Z,99956.19
2022-11-16T00:44:19.756Z,99948.25
2022-11-16T00:46:46.947Z,99948.25
2022-11-16T00:49:13.887Z,99959.19
2022-11-16T00:51:40.707Z,99957.72
2022-11-16T00:54:08.451Z,99950.09
2022-11-16T00:56:36.947Z,99945.63
2022-11-16T00:59:04.406Z,99948.09
2022-11-16T01:01:31.241Z,99951.41
2022-11-16T01:03:58.179Z,99963.84
2022-11-16T01:06:25.038Z,99961.03
2022-11-16T01:08:51.822Z,99960.50
2022-11-16T01:11:38.164Z,99945.28
2022-11-16T01:14:07.994Z,99936.84
2022-11-16T01:16:35.191Z,99952.88
2022-11-16T01:19:02.938Z,99939.31
2022-11-16T01:21:29.841Z,99949.25
2022-11-16T01:23:57.321Z,99948.75
2022-11-16T01:26:24.706Z,99949.09
2022-11-16T01:28:51.851Z,99950.41
2022-11-16T01:31:18.906Z,99942.31
2022-11-16T01:33:45.930Z,99933.16
2022-11-16T01:36:14.929Z,99943.63
2022-11-16T01:38:46.609Z,99938.63
2022-11-16T01:41:15.498Z,99925.56
2022-11-16T01:43:56.832Z,99933.03
2022-11-16T01:46:25.945Z,99925.72
2022-11-16T01:49:01.043Z,99922.41
2022-11-16T01:51:28.085Z,99917.31
2022-11-16T01:53:55.617Z,99917.78
2022-11-16T01:56:25.279Z,99904.69
2022-11-16T01:58:53.139Z,99905.00
2022-11-16T02:01:20.133Z,99890.44
2022-11-16T02:03:47.032Z,99907.50
2022-11-16T02:06:16.673Z,99896.56
2022-11-16T02:09:14.296Z,99894.44
2022-11-16T02:12:08.920Z,99892.13
2022-11-16T02:14:38.683Z,99879.69
2022-11-16T02:17:18.382Z,99880.50
2022-11-16T02:20:14.453Z,99879.53
2022-11-16T02:23:09.711Z,99878.53
2022-11-16T02:25:51.662Z,99889.78
2022-11-16T02:28:43.902Z,99889.97
2022-11-16T02:31:18.074Z,99863.94
2022-11-16T02:33:49.356Z,99881.34
2022-11-16T02:36:21.348Z,99872.91
2022-11-16T02:38:57.146Z,99889.31
2022-11-16T02:41:27.435Z,99902.22
2022-11-16T02:44:22.708Z,99886.44
2022-11-16T02:46:56.473Z,99882.63
2022-11-16T02:49:25.924Z,99861.09
2022-11-16T02:51:54.173Z,99875.00
2022-11-16T02:54:23.906Z,99880.16
2022-11-16T02:57:25.312Z,99888.78
2022-11-16T02:59:56.735Z,99883.78
2022-11-16T03:02:30.718Z,99888.13
2022-11-16T03:05:34.067Z,99895.72
2022-11-16T03:08:27.277Z,99886.09
2022-11-16T03:11:21.166Z,99876.66
2022-11-16T03:13:49.528Z,99885.78
2022-11-16T03:16:31.835Z,99878.16
2022-11-16T03:19:02.531Z,99874.03
2022-11-16T03:21:58.694Z,99869.72
2022-11-16T03:24:25.779Z,99873.19
2022-11-16T03:27:07.347Z,99875.34
2022-11-16T03:29:48.216Z,99847.06
2022-11-16T03:32:35.811Z,99849.38
2022-11-16T03:35:19.914Z,99852.50
2022-11-16T03:37:48.416Z,99863.13
2022-11-16T03:40:18.341Z,99866.41
2022-11-16T03:42:46.352Z,99863.59
2022-11-16T03:45:14.190Z,99867.22
2022-11-16T03:47:42.112Z,99850.88
2022-11-16T03:50:10.050Z,99867.56
2022-11-16T03:52:37.104Z,99872.69
2022-11-16T03:55:04.731Z,99872.03
2022-11-16T03:57:31.636Z,99884.97
2022-11-16T03:59:58.350Z,99891.06
2022-11-16T04:02:25.096Z,99882.97
2022-11-16T04:05:10.683Z,99888.25
2022-11-16T04:07:56.240Z,99886.63
2022-11-16T04:10:41.661Z,99895.53
2022-11-16T04:13:30.557Z,99879.66
2022-11-16T04:16:16.224Z,99863.09
2022-11-16T04:19:01.603Z,99856.63
2022-11-16T04:21:53.915Z,99851.00
2022-11-16T04:24:24.360Z,99847.31
2022-11-16T04:27:14.821Z,99857.41
2022-11-16T04:29:42.442Z,99857.38
2022-11-16T04:32:28.751Z,99873.88
2022-11-16T04:35:14.677Z,99864.63
2022-11-16T04:37:52.619Z,99855.47
2022-11-16T04:40:22.788Z,99852.47
2022-11-16T04:42:52.593Z,99857.06
2022-11-16T04:45:39.521Z,99847.06
2022-11-16T04:48:06.765Z,99844.78
2022-11-16T04:50:33.878Z,99845.09
2022-11-16T04:53:00.671Z,99851.91
2022-11-16T04:55:27.560Z,99833.53
2022-11-16T04:57:54.663Z,99837.53
2022-11-16T05:00:21.744Z,99838.88
2022-11-16T05:02:48.513Z,99837.41
2022-11-16T05:05:15.467Z,99834.59
2022-11-16T05:07:42.451Z,99825.47
2022-11-16T05:10:09.912Z,99829.81
2022-11-16T05:12:36.919Z,99830.44
2022-11-16T05:15:05.219Z,99808.63
2022-11-16T05:17:32.240Z,99823.69
2022-11-16T05:20:17.416Z,99817.53
2022-11-16T05:22:44.332Z,99816.72
2022-11-16T05:25:11.667Z,99800.69
2022-11-16T05:27:38.382Z,99809.00
2022-11-16T05:30:06.396Z,99808.38
2022-11-16T05:32:33.132Z,99806.56
2022-11-16T05:34:59.933Z,99808.84
2022-11-16T05:37:27.055Z,99786.34
2022-11-16T05:39:55.037Z,99795.13
2022-11-16T05:42:21.811Z,99806.03
2022-11-16T05:44:48.659Z,99804.38
2022-11-16T05:47:15.402Z,99806.03
2022-11-16T05:49:42.111Z,99793.66
2022-11-16T05:52:08.918Z,99802.09
2022-11-16T05:54:35.607Z,99803.75
2022-11-16T05:57:02.287Z,99793.78
2022-11-16T05:59:30.267Z,99806.03
2022-11-16T06:01:57.982Z,99811.84
2022-11-16T06:04:25.044Z,99802.56
2022-11-16T06:06:52.401Z,99807.84
2022-11-16T06:09:19.192Z,99811.31
2022-11-16T06:11:45.919Z,99811.81
2022-11-16T06:14:12.827Z,99809.00
2022-11-16T06:16:39.566Z,99819.59
2022-11-16T06:19:06.260Z,99805.84
2022-11-16T06:21:33.340Z,99792.91
2022-11-16T06:24:00.136Z,99762.94
2022-11-16T06:26:26.823Z,99786.63
2022-11-16T06:28:55.131Z,99779.31
2022-11-16T06:31:22.102Z,99772.22
2022-11-16T06:33:48.854Z,99770.53
2022-11-16T06:36:15.743Z,99756.16
2022-11-16T06:38:42.529Z,99756.31
2022-11-16T06:41:09.373Z,99753.16
2022-11-16T06:43:36.303Z,99740.41
2022-11-16T06:46:03.304Z,99750.22
2022-11-16T06:48:30.857Z,99740.28
2022-11-16T06:50:57.873Z,99741.94
2022-11-16T06:53:28.960Z,99754.50
2022-11-16T06:56:00.472Z,99731.84
2022-11-16T06:58:30.477Z,99714.03
2022-11-16T07:00:57.988Z,99744.59
2022-11-16T07:03:24.819Z,99749.25
2022-11-16T07:05:51.566Z,99746.09
2022-11-16T07:08:18.353Z,99750.94
2022-11-16T07:10:45.142Z,99752.44
2022-11-16T07:13:11.811Z,99758.06
2022-11-16T07:15:38.496Z,99756.28
2022-11-16T07:18:08.449Z,99763.41
2022-11-16T07:20:37.583Z,99769.19
2022-11-16T07:23:07.081Z,99773.19
2022-11-16T07:25:35.870Z,99780.31
2022-11-16T07:28:02.665Z,99775.03
2022-11-16T07:30:29.499Z,99766.91
2022-11-16T07:32:59.783Z,99769.38
2022-11-16T07:35:26.564Z,99809.34
2022-11-16T07:37:53.341Z,99810.84
2022-11-16T07:40:20.952Z,99795.06
2022-11-16T07:42:48.104Z,99811.47
2022-11-16T07:45:14.979Z,99805.81
2022-11-16T07:47:41.930Z,99818.19
2022-11-16T07:50:10.943Z,99795.50
2022-11-16T07:52:37.776Z,99798.97
2022-11-16T07:55:05.913Z,99788.84
2022-11-16T07:57:32.806Z,99799.75
2022-11-16T07:59:59.685Z,99782.41
2022-11-16T08:02:26.519Z,99785.22
2022-11-16T08:04:53.278Z,99792.00
2022-11-16T08:07:20.141Z,99768.78
2022-11-16T08:09:47.064Z,99787.84
2022-11-16T08:12:13.884Z,99792.47
2022-11-16T08:14:40.578Z,99791.66
2022-11-16T08:17:08.623Z,99787.38
2022-11-16T08:19:36.702Z,99781.75
2022-11-16T08:22:04.007Z,99779.44
2022-11-16T08:24:31.286Z,99790.84
2022-11-16T08:26:59.029Z,99798.31
2022-11-16T08:29:26.498Z,99794.69
2022-11-16T08:31:53.953Z,99809.75
2022-11-16T08:34:21.427Z,99805.94
2022-11-16T08:36:48.487Z,99809.41
2022-11-16T08:39:15.440Z,99807.59
2022-11-16T08:41:42.910Z,99801.13
2022-11-16T08:44:09.960Z,99824.31
2022-11-16T08:46:36.851Z,99820.63
2022-11-16T08:49:03.604Z,99830.75
2022-11-16T08:51:30.330Z,99825.44
2022-11-16T08:53:58.384Z,99820.78
2022-11-16T08:56:30.266Z,99827.19
2022-11-16T08:58:59.165Z,99826.88
2022-11-16T09:01:28.507Z,99836.63
2022-11-16T09:03:55.776Z,99849.19
2022-11-16T09:06:25.726Z,99835.97
2022-11-16T09:08:52.990Z,99830.22
2022-11-16T09:11:22.157Z,99836.06
2022-11-16T09:13:50.920Z,99831.50
2022-11-16T09:16:21.121Z,99814.63
2022-11-16T09:18:50.951Z,99837.94
2022-11-16T09:21:23.306Z,99834.00
2022-11-16T09:23:50.450Z,99840.63
2022-11-16T09:26:23.666Z,99841.31
2022-11-16T09:29:01.389Z,99846.94
2022-11-16T09:31:29.427Z,99833.19
2022-11-16T09:33:58.895Z,99844.44
2022-11-16T09:36:29.180Z,99837.59
2022-11-16T09:39:26.202Z,99847.06
2022-11-16T09:41:55.757Z,99851.22
2022-11-16T09:44:31.564Z,99856.84
2022-11-16T09:47:00.708Z,99851.41
2022-11-16T09:49:39.837Z,99852.25
2022-11-16T09:52:14.670Z,99848.09
2022-11-16T09:54:45.113Z,99828.56
2022-11-16T09:57:18.264Z,99831.06
2022-11-16T09:59:48.922Z,99812.88
2022-11-16T10:02:28.554Z,99819.47
2022-11-16T10:05:04.017Z,99815.16
2022-11-16T10:07:42.138Z,99821.47
2022-11-16T10:10:27.527Z,99823.97
2022-11-16T10:13:22.877Z,99825.28
2022-11-16T10:16:11.261Z,99835.56
2022-11-16T10:18:46.971Z,99838.91
2022-11-16T10:21:38.105Z,99818.38
2022-11-16T10:24:23.083Z,99818.25
2022-11-16T10:27:30.533Z,99811.28
2022-11-16T10:30:09.798Z,99827.84
2022-11-16T10:33:11.434Z,99824.38
2022-11-16T10:35:54.957Z,99811.44
2022-11-16T10:38:28.668Z,99823.41
2022-11-16T10:41:14.772Z,99818.25
2022-11-16T10:43:43.408Z,99812.47
2022-11-16T10:46:22.768Z,99829.69
2022-11-16T10:49:11.672Z,99814.78
2022-11-16T10:51:38.786Z,99812.13
2022-11-16T10:54:16.902Z,99816.28
2022-11-16T10:56:56.101Z,99820.88
2022-11-16T10:59:50.266Z,99798.22
2022-11-16T11:02:22.772Z,99818.25
2022-11-16T11:05:08.400Z,99807.63
2022-11-16T11:07:40.160Z,99803.50
2022-11-16T11:10:31.594Z,99809.78
2022-11-16T11:13:21.139Z,99807.31
2022-11-16T11:15:48.945Z,99808.00
2022-11-16T11:18:15.581Z,99789.28
2022-11-16T11:20:45.762Z,99804.53
2022-11-16T11:23:19.559Z,99787.59
2022-11-16T11:25:54.311Z,99788.66
2022-11-16T11:28:32.935Z,99783.66
2022-11-16T11:31:25.975Z,99791.94
2022-11-16T11:33:59.721Z,99786.81
2022-11-16T11:36:38.494Z,99776.84
2022-11-16T11:39:28.686Z,99782.81
2022-11-16T11:42:13.363Z,99783.03
2022-11-16T11:44:44.775Z,99773.41
2022-11-16T11:47:56.209Z,99759.31
2022-11-16T11:50:38.703Z,99774.69
2022-11-16T11:53:34.383Z,99744.91
2022-11-16T11:56:01.479Z,99746.56
2022-11-16T11:58:37.528Z,99743.63
2022-11-16T12:01:24.842Z,99746.25
2022-11-16T12:04:11.696Z,99701.41
2022-11-16T12:06:43.644Z,99730.00
2022-11-16T12:09:29.229Z,99708.47
2022-11-16T12:12:20.531Z,99712.13
2022-11-16T12:15:02.805Z,99708.13
2022-11-16T12:18:14.222Z,99727.56
2022-11-16T12:20:55.667Z,99723.06
2022-11-16T12:23:47.113Z,99715.09
2022-11-16T12:26:28.865Z,99701.34
2022-11-16T12:29:20.649Z,99708.47
2022-11-16T12:31:47.418Z,99705.66
2022-11-16T12:34:34.077Z,99698.03
2022-11-16T12:37:29.773Z,99706.63
2022-11-16T12:40:05.572Z,99696.00
2022-11-16T12:43:04.664Z,99702.47
2022-11-16T12:45:34.556Z,99698.63
2022-11-16T12:48:26.103Z,99702.13
2022-11-16T12:51:07.204Z,99692.81
2022-11-16T12:53:51.367Z,99695.44
2022-11-16T12:56:24.220Z,99693.13
2022-11-16T12:59:05.796Z,99684.53
2022-11-16T13:01:48.320Z,99692.44
2022-11-16T13:04:27.720Z,99686.81
2022-11-16T13:07:10.411Z,99687.28
2022-11-16T13:09:42.139Z,99687.09
2022-11-16T13:12:15.553Z,99666.59
2022-11-16T13:14:46.451Z,99704.31
2022-11-16T13:17:20.864Z,99697.19
2022-11-16T13:20:14.234Z,99704.47
2022-11-16T13:22:51.848Z,99703.63
2022-11-16T13:25:28.152Z,99668.06
2022-11-16T13:28:12.495Z,99682.88
2022-11-16T13:31:00.878Z,99665.16
2022-11-16T13:33:34.378Z,99681.38
2022-11-16T13:36:37.024Z,99670.50
2022-11-16T13:39:05.556Z,99670.63
2022-11-16T13:41:36.438Z,99675.44
2022-11-16T13:44:12.157Z,99671.59
2022-11-16T13:46:55.911Z,99653.09
2022-11-16T13:49:34.164Z,99661.50
2022-11-16T13:52:22.482Z,99664.03
2022-11-16T13:54:55.667Z,99653.59
2022-11-16T13:57:33.865Z,99654.69
2022-11-16T14:00:05.283Z,99656.00
2022-11-16T14:02:33.679Z,99655.88
2022-11-16T14:05:02.487Z,99644.75
2022-11-16T14:07:33.743Z,99658.63
2022-11-16T14:10:01.510Z,99658.94
2022-11-16T14:12:37.665Z,99646.34
2022-11-16T14:15:13.727Z,99652.13
2022-11-16T14:17:50.405Z,99647.31
2022-11-16T14:20:45.514Z,99640.84
2022-11-16T14:23:49.661Z,99641.53
2022-11-16T14:26:42.487Z,99631.91
2022-11-16T14:29:24.659Z,99636.03
2022-11-16T14:31:56.017Z,99647.16
2022-11-16T14:34:24.949Z,99635.88
2022-11-16T14:36:52.968Z,99641.53
2022-11-16T14:39:31.066Z,99628.63
2022-11-16T14:42:01.844Z,99633.56
2022-11-16T14:44:33.289Z,99625.94
2022-11-16T14:47:01.051Z,99630.38
2022-11-16T14:49:29.272Z,99614.31
2022-11-16T14:52:01.376Z,99615.13
2022-11-16T14:54:39.150Z,99623.56
2022-11-16T14:57:18.178Z,99617.25
2022-11-16T14:59:44.867Z,99614.13
2022-11-16T15:02:23.822Z,99599.31
2022-11-16T15:04:53.298Z,99603.72
2022-11-16T15:07:24.276Z,99605.69
2022-11-16T15:09:54.885Z,99606.88
2022-11-16T15:12:46.545Z,99591.47
2022-11-16T15:15:15.398Z,99605.25
2022-11-16T15:17:45.098Z,99593.97
2022-11-16T15:20:13.514Z,99610.16
2022-11-16T15:22:42.865Z,99598.88
2022-11-16T15:25:30.093Z,99604.88
2022-11-16T15:27:59.333Z,99613.09
2022-11-16T15:30:37.145Z,99618.59
2022-11-16T15:33:15.483Z,99606.50
2022-11-16T15:35:42.587Z,99616.53
2022-11-16T15:38:37.686Z,99605.31
2022-11-16T15:41:05.610Z,99614.47
2022-11-16T15:43:49.594Z,99615.78
2022-11-16T15:46:28.099Z,99619.25
2022-11-16T15:48:55.386Z,99618.22
2022-11-16T15:51:23.584Z,99621.56
2022-11-16T15:53:53.064Z,99624.38
2022-11-16T15:56:25.797Z,99629.31
2022-11-16T15:58:54.531Z,99621.34
2022-11-16T16:01:22.694Z,99644.03
2022-11-16T16:04:05.592Z,99644.94
2022-11-16T16:06:58.827Z,99642.47
2022-11-16T16:09:37.867Z,99639.41
2022-11-16T16:12:46.941Z,99639.22
2022-11-16T16:15:30.167Z,99649.97
2022-11-16T16:17:58.948Z,99614.72
2022-11-16T16:20:29.235Z,99634.19
2022-11-16T16:23:08.068Z,99652.84
2022-11-16T16:25:36.384Z,99647.41
2022-11-16T16:28:03.980Z,99658.59
2022-11-16T16:30:33.350Z,99640.59
2022-11-16T16:33:00.724Z,99645.56
2022-11-16T16:35:27.842Z,99638.53
2022-11-16T16:37:59.823Z,99632.22
2022-11-16T16:40:27.553Z,99653.38
2022-11-16T16:42:58.062Z,99639.50
2022-11-16T16:45:35.223Z,99627.25
2022-11-16T16:48:01.928Z,99636.66
2022-11-16T16:50:29.175Z,99645.59
2022-11-16T16:52:56.010Z,99643.94
2022-11-16T16:55:22.791Z,99639.94
2022-11-16T16:57:49.568Z,99630.81
2022-11-16T17:00:17.017Z,99646.09
2022-11-16T17:02:43.885Z,99636.19
2022-11-16T17:05:11.785Z,99645.59
2022-11-16T17:07:38.703Z,99639.94
2022-11-16T17:10:05.913Z,99635.34
2022-11-16T17:12:32.605Z,99632.41
2022-11-16T17:14:59.506Z,99631.03
2022-11-16T17:17:26.246Z,99624.91
2022-11-16T17:19:53.433Z,99612.94
2022-11-16T17:22:20.688Z,99621.94
2022-11-16T17:24:47.666Z,99609.09
2022-11-16T17:27:14.427Z,99566.47
2022-11-16T17:29:41.259Z,99623.38
2022-11-16T17:32:08.135Z,99619.38
2022-11-16T17:34:34.845Z,99623.38
2022-11-16T17:37:01.674Z,99611.28
2022-11-16T17:39:28.396Z,99613.75
2022-11-16T17:41:55.176Z,99616.09
2022-11-16T17:44:22.440Z,99611.97
2022-11-16T17:46:49.345Z,99611.97
2022-11-16T17:49:16.118Z,99622.75
2022-11-16T17:51:43.031Z,99623.13
2022-11-16T17:54:09.747Z,99616.53
2022-11-16T17:56:36.437Z,99626.28
2022-11-16T17:59:03.251Z,99629.09
2022-11-16T18:01:30.213Z,99632.41
2022-11-16T18:03:57.292Z,99637.72
2022-11-16T18:06:25.556Z,99630.75
2022-11-16T18:08:53.131Z,99632.50
2022-11-16T18:11:21.433Z,99635.72
2022-11-16T18:13:52.845Z,99635.34
2022-11-16T18:16:21.896Z,99642.78
2022-11-16T18:18:55.619Z,99643.00
2022-11-16T18:21:22.305Z,99651.31
2022-11-16T18:23:49.388Z,99646.50
2022-11-16T18:26:20.740Z,99647.31
2022-11-16T18:28:48.449Z,99644.38
2022-11-16T18:31:17.999Z,99645.06
2022-11-16T18:33:45.540Z,99643.78
2022-11-16T18:36:12.775Z,99643.59
2022-11-16T18:38:39.680Z,99638.16
2022-11-16T18:41:12.241Z,99652.56
2022-11-16T18:43:39.590Z,99642.94
2022-11-16T18:46:06.845Z,99659.03
2022-11-16T18:48:33.791Z,99647.75
2022-11-16T18:51:04.528Z,99646.78
2022-11-16T18:53:33.064Z,99638.97
2022-11-16T18:56:00.260Z,99640.78
2022-11-16T19:01:17.176Z,99627.41
2022-11-16T19:03:43.999Z,99633.19
2022-11-16T19:06:11.894Z,99629.31
2022-11-16T19:08:40.502Z,99628.81
2022-11-16T19:11:12.073Z,99608.81
2022-11-16T19:13:40.522Z,99623.69
2022-11-16T19:16:08.148Z,99634.59
2022-11-16T19:18:36.217Z,99631.91
2022-11-16T19:21:16.505Z,99626.50
2022-11-16T19:23:45.548Z,99633.78
2022-11-16T19:26:14.949Z,99634.97
2022-11-16T19:28:46.656Z,99626.00
2022-11-16T19:31:21.325Z,99622.84
2022-11-16T19:33:48.689Z,99627.31
2022-11-16T19:36:17.755Z,99641.09
2022-11-16T19:38:46.223Z,99636.59
2022-11-16T19:41:14.707Z,99624.84
2022-11-16T19:43:41.891Z,99642.72
2022-11-16T19:46:16.784Z,99630.97
2022-11-16T19:48:44.822Z,99639.22
2022-11-16T19:51:14.706Z,99635.91
2022-11-16T19:53:42.037Z,99646.00
2022-11-16T19:56:14.528Z,99639.56
2022-11-16T19:58:42.175Z,99646.50
2022-11-16T20:01:18.064Z,99645.19
2022-11-16T20:03:46.183Z,99625.59
2022-11-16T20:06:19.497Z,99650.97
2022-11-16T20:08:56.013Z,99649.31
2022-11-16T20:11:24.669Z,99650.16
2022-11-16T20:13:53.202Z,99631.91
2022-11-16T20:16:22.957Z,99650.50
2022-11-16T20:18:51.161Z,99639.22
2022-11-16T20:21:29.951Z,99639.69
2022-11-16T20:24:03.060Z,99634.53
2022-11-16T20:26:34.647Z,99643.00
2022-11-16T20:29:01.676Z,99641.00
2022-11-16T20:31:30.684Z,99649.81
2022-11-16T20:34:05.969Z,99637.84
2022-11-16T20:36:33.753Z,99649.13
2022-11-16T20:39:01.349Z,99643.94
2022-11-16T20:41:30.551Z,99636.19
2022-11-16T20:43:59.268Z,99641.81
2022-11-16T20:46:28.160Z,99636.88
2022-11-16T20:48:57.393Z,99657.72
2022-11-16T20:51:24.472Z,99633.59
2022-11-16T20:53:52.094Z,99662.50
2022-11-16T20:56:19.894Z,99666.31
2022-11-16T20:58:48.787Z,99666.31
2022-11-16T21:01:16.842Z,99661.50
2022-11-16T21:03:44.905Z,99659.00
2022-11-16T21:06:14.945Z,99662.31
2022-11-16T21:08:41.857Z,99660.53
2022-11-16T21:11:13.160Z,99652.97
2022-11-16T21:13:58.603Z,99667.19
2022-11-16T21:16:25.542Z,99679.94
2022-11-16T21:18:54.516Z,99665.47
2022-11-16T21:21:21.554Z,99670.28
2022-11-16T21:23:51.973Z,99671.97
2022-11-16T21:26:22.145Z,99669.97
2022-11-16T21:28:48.903Z,99681.56
2022-11-16T21:31:22.470Z,99679.25
2022-11-16T21:33:49.220Z,99671.47
2022-11-16T21:36:18.673Z,99676.41
2022-11-16T21:38:45.604Z,99673.47
2022-11-16T21:41:14.727Z,99675.72
2022-11-16T21:43:41.878Z,99679.94
2022-11-16T21:46:13.227Z,99688.19
2022-11-16T21:48:40.375Z,99686.66
2022-11-16T21:51:09.441Z,99672.91
2022-11-16T21:53:37.193Z,99674.28
2022-11-16T21:56:06.025Z,99673.03
2022-11-16T21:58:32.934Z,99677.19
2022-11-16T22:01:02.267Z,99665.91
2022-11-16T22:03:31.252Z,99667.41
2022-11-16T22:06:18.625Z,99669.28
2022-11-16T22:08:46.345Z,99679.50
2022-11-16T22:11:13.829Z,99684.47
2022-11-16T22:13:40.852Z,99678.94
2022-11-16T22:16:13.043Z,99665.03
2022-11-16T22:18:39.854Z,99690.09
2022-11-16T22:21:07.388Z,99693.06
2022-11-16T22:23:35.269Z,99693.53
2022-11-16T22:26:04.766Z,99679.31
2022-11-16T22:28:32.578Z,99682.25
2022-11-16T22:31:08.049Z,99686.22
2022-11-16T22:33:35.516Z,99687.91
2022-11-16T22:36:02.979Z,99683.91
2022-11-16T22:38:31.556Z,99683.78
2022-11-16T22:40:58.583Z,99688.72
2022-11-16T22:43:27.661Z,99679.09
2022-11-16T22:45:59.376Z,99664.91
2022-11-16T22:48:33.871Z,99662.09
2022-11-16T22:51:07.598Z,99671.53
2022-11-16T22:53:35.001Z,99680.31
2022-11-16T22:56:09.146Z,99678.69
2022-11-16T22:58:39.828Z,99667.41
2022-11-16T23:01:08.153Z,99674.50
2022-11-16T23:03:35.871Z,99673.31
2022-11-16T23:06:04.028Z,99678.19
2022-11-16T23:08:31.207Z,99671.53
2022-11-16T23:11:27.407Z,99674.00
2022-11-16T23:14:13.336Z,99662.72
2022-11-16T23:16:40.986Z,99669.19
2022-11-16T23:19:28.898Z,99656.13
2022-11-16T23:22:18.064Z,99672.81
2022-11-16T23:25:03.680Z,99664.22
2022-11-16T23:28:00.322Z,99641.81
2022-11-16T23:30:27.283Z,99658.56
2022-11-16T23:32:54.410Z,99636.44
2022-11-16T23:35:22.338Z,99663.66
2022-11-16T23:37:53.413Z,99650.03
2022-11-16T23:40:21.464Z,99639.59
2022-11-16T23:43:07.180Z,99646.88
2022-11-16T23:45:34.065Z,99634.50
2022-11-16T23:48:00.839Z,99637.94
2022-11-16T23:50:27.620Z,99644.28
2022-11-16T23:52:54.312Z,99644.97
2022-11-16T23:55:23.166Z,99637.69
2022-11-16T23:57:50.936Z,99639.53
